TAF Text Data
IDs:
Format:
Raw Decoded Include METAR

Data at: 1747 UTC 20 May 2022

VLVT 201300Z 34002KT 4000 TS SCT013 FEW020CB BKN040 25/25 Q1005 CB OVER AD NOSIG

TAF VLVT 201700Z 2018/2118 14006KT 4000 BR FEW016 SCT040 BKN083